Date,TemperatureHighF,TemperatureAvgF,TemperatureLowF,DewpointHighF,DewpointAvgF,DewpointLowF,HumidityHigh,HumidityAvg,HumidityLow,PressureMaxIn,PressureMinIn,WindSpeedMaxMPH,WindSpeedAvgMPH,GustSpeedMaxMPH,PrecipitationSumIn
2013-1-1,24.6,22.6,18.7,7.2,3.3,-0.1,50,43,34,28.14,27.99,0,0,0,0.00
2013-1-2,28.6,23.6,18.1,5.6,0.9,-8.1,44,37,20,28.11,27.99,0,0,0,0.00
2013-1-3,26.8,17.4,14.2,0.9,-1.8,-3.7,45,42,28,27.99,27.91,0,0,0,0.00
2013-1-4,29.8,25.5,18.7,11.1,4.3,0.4,50,40,30,27.96,27.91,0,0,0,0.00
2013-1-5,36.7,30.1,25.5,11.6,7.6,-0.4,50,39,24,27.94,27.76,0,0,0,0.00
2013-1-6,33.6,30.5,27.1,18.4,9.1,3.7,56,40,31,27.76,27.64,0,0,0,0.00
2013-1-7,39.2,35.3,32.2,22.0,18.2,6.6,58,50,26,27.64,27.43,0,0,0,0.08
2013-1-8,44.2,37.5,33.3,27.1,13.3,1.0,62,38,21,27.73,27.46,0,0,0,0.04
2013-1-9,48.2,41.9,33.4,15.1,8.7,2.5,41,27,16,27.46,27.26,0,0,0,0.04
2013-1-10,33.4,29.3,26.1,12.3,8.4,3.4,54,41,32,27.46,27.37,0,0,0,0.00
2013-1-11,35.4,25.9,16.5,12.1,-2.7,-12.9,55,30,18,27.79,27.46,13,1,13,0.00
2013-1-12,23.5,19.6,13.3,4.7,-0.3,-4.8,49,41,32,27.88,27.79,10,2,10,0.00
2013-1-13,28.2,19.0,14.4,2.2,-4.5,-12.3,45,35,21,27.96,27.85,8,1,8,0.00
2013-1-14,24.6,21.6,17.8,5.0,2.0,-5.0,46,42,34,27.99,27.88,8,1,8,0.00
2013-1-15,24.3,22.7,21.4,5.5,3.6,2.2,44,43,42,28.02,27.99,4,0,4,0.00
2013-1-18,20.5,19.0,17.4,3.9,2.6,1.0,49,48,47,27.91,27.88,0,0,0,0.00
2013-1-19,34.9,23.4,15.1,11.9,4.5,-1.2,48,44,34,27.99,27.91,0,0,0,0.08
2013-1-20,35.6,24.1,18.1,9.1,4.4,0.2,51,43,24,28.05,27.96,0,0,0,0.04
2013-1-21,25.0,19.6,15.8,7.4,3.2,-0.9,52,48,46,27.96,27.85,0,0,0,0.00
2013-1-22,24.6,21.3,17.1,8.5,5.2,1.2,52,49,45,27.88,27.73,0,0,0,0.00
2013-1-23,36.7,28.3,22.6,25.4,12.5,5.6,65,51,42,27.73,27.52,19,1,19,0.00
2013-1-24,38.3,29.9,25.2,18.1,10.1,1.4,56,44,21,27.85,27.67,12,2,12,0.04
2013-1-25,43.0,37.0,32.0,28.5,23.8,17.9,64,59,38,27.73,27.52,13,2,13,0.24
2013-1-26,38.8,34.9,31.8,27.5,16.8,8.3,64,48,30,27.55,27.46,15,2,15,0.00
2013-1-27,32.4,30.6,28.0,15.9,11.9,8.2,56,45,36,27.58,27.52,0,0,0,0.00
2013-1-28,33.1,30.6,28.4,17.2,14.3,10.4,55,50,43,27.52,27.43,0,0,0,0.00
2013-1-29,36.7,32.2,29.5,20.0,13.9,7.1,56,47,30,27.76,27.46,0,0,0,0.04
2013-1-30,46.0,37.6,34.3,23.8,17.2,8.1,60,44,22,27.82,27.70,0,0,0,0.12
2013-1-31,43.5,38.7,36.3,27.4,21.9,16.2,65,51,34,27.85,27.76,11,1,12,0.00
2013-2-1,44.4,36.4,28.0,20.5,14.9,7.6,56,42,23,28.02,27.79,0,0,0,0.00
2013-2-2,33.3,29.5,26.1,20.7,16.4,11.0,61,58,51,28.05,27.85,5,0,5,0.00
2013-2-3,37.9,32.2,26.2,25.5,18.6,15.0,63,57,45,27.85,27.70,10,1,10,0.00
2013-2-4,44.6,37.2,33.1,21.5,15.3,9.6,58,41,25,27.70,27.58,15,4,15,0.00
2013-2-5,44.2,37.9,32.0,19.3,14.8,5.0,56,40,20,27.58,27.43,15,5,15,0.00
2013-2-8,33.3,32.9,32.5,13.9,12.5,11.6,45,42,41,27.70,27.67,0,0,0,0.00
2013-2-9,34.9,31.7,28.4,15.0,9.6,5.4,50,39,31,27.70,27.64,0,0,0,0.00
2013-2-13,50.7,41.6,30.2,14.0,3.0,-2.6,35,20,16,27.91,27.79,9,2,9,0.00
2013-2-14,42.8,35.5,27.9,11.1,6.7,2.3,43,30,20,28.08,27.91,13,2,13,0.00
2013-2-15,52.9,37.9,27.7,17.1,8.7,2.1,52,32,16,28.11,27.85,8,1,8,0.00
2013-2-16,49.5,37.1,27.5,19.9,13.4,6.7,55,39,19,27.85,27.52,15,1,15,0.00
2013-2-17,47.3,37.4,29.7,15.8,5.0,-2.4,50,27,17,27.70,27.55,12,2,12,0.00
2013-2-18,44.1,36.1,27.3,9.8,2.3,-3.3,46,24,18,27.70,27.40,12,2,12,0.00
2013-2-19,36.7,33.7,30.9,19.2,13.5,3.4,51,43,27,27.46,27.34,8,1,8,0.00
2013-2-20,40.3,33.0,26.8,17.8,7.6,-2.6,54,36,18,27.58,27.46,7,1,8,0.04
2013-2-21,36.1,33.1,24.8,18.9,11.9,3.2,54,41,31,27.61,27.55,15,5,15,0.00
2013-2-22,38.5,34.8,32.7,22.0,15.3,0.4,56,45,22,27.58,27.26,15,3,15,0.04
2013-2-23,46.0,34.9,29.5,10.7,2.6,-2.3,38,26,17,27.79,27.32,10,0,10,0.00
2013-2-24,39.9,34.1,28.6,8.4,2.8,-2.6,41,27,18,27.88,27.64,18,5,18,0.00
2013-2-25,43.5,37.0,32.9,21.3,6.0,-3.5,60,30,18,27.70,27.49,17,3,17,0.00
2013-2-26,42.1,33.8,28.2,8.6,3.0,-2.6,42,28,18,27.88,27.70,0,0,0,0.00
2013-2-27,46.4,38.2,32.9,8.7,2.4,-2.3,32,22,17,27.85,27.79,0,0,0,0.00
2013-2-28,44.6,38.6,34.9,27.6,16.7,8.7,61,41,25,27.94,27.82,0,0,0,0.04
2013-3-1,52.3,48.7,38.8,30.0,19.6,9.1,59,33,19,27.96,27.88,0,0,0,0.00
2013-3-2,56.1,49.3,43.2,18.5,12.2,7.1,33,23,15,27.88,27.52,0,0,0,0.00
2013-3-3,47.1,39.6,33.1,14.3,0.5,-3.8,28,19,17,27.76,27.49,17,4,17,0.00
2013-3-4,50.2,37.6,28.9,5.6,1.0,-3.8,33,21,16,27.85,27.67,13,3,13,0.00
2013-3-5,42.6,35.7,31.5,7.1,-0.7,-5.0,30,21,18,27.67,27.43,0,0,0,0.00
2013-3-6,47.1,38.2,34.0,22.5,9.8,-2.0,53,32,19,27.46,27.23,16,3,16,0.12
2013-3-7,46.6,37.0,30.2,21.0,14.3,2.5,59,42,17,27.67,27.46,0,0,0,0.08
2013-3-8,44.6,33.9,27.9,25.1,15.9,5.0,62,49,20,27.70,27.64,0,0,0,0.00
2013-3-9,54.0,39.8,26.1,21.5,9.4,0.8,51,31,15,27.96,27.70,6,0,6,0.00
2013-3-10,46.6,38.7,32.4,17.9,9.1,-0.6,42,31,17,27.99,27.82,15,2,15,0.00
2013-3-11,51.8,41.9,33.8,18.8,9.2,-0.7,51,28,16,27.91,27.82,0,0,0,0.00
2013-3-12,54.9,45.7,35.2,26.8,13.7,-1.1,56,29,18,27.82,27.64,0,0,0,0.00
2013-3-13,57.2,51.1,46.4,23.5,14.3,7.8,37,23,15,27.79,27.70,0,0,0,0.00
2013-3-14,49.6,48.8,46.9,16.7,16.0,15.0,28,27,26,27.76,27.73,0,0,0,0.00
2013-3-18,47.7,35.8,28.9,12.4,5.2,-1.4,37,28,17,27.76,27.55,17,1,17,0.00
2013-3-19,52.2,37.8,24.4,14.2,5.1,0.2,58,28,16,27.85,27.43,14,2,14,0.00
2013-3-20,55.2,44.1,36.1,24.8,15.2,0.3,48,32,17,27.46,27.14,22,1,22,0.39
2013-3-21,36.0,34.4,32.7,10.7,7.2,2.2,35,32,25,27.46,27.40,0,0,0,0.00
2013-3-22,45.3,36.8,29.8,3.6,-0.6,-3.6,28,20,17,27.82,27.70,17,4,17,0.00
2013-3-23,43.7,32.6,23.7,7.1,0.8,-4.1,47,26,18,27.91,27.82,13,2,13,0.00
2013-3-24,49.1,35.7,23.2,7.6,2.6,-6.0,44,26,16,27.91,27.76,10,2,10,0.00
2013-3-25,55.8,38.7,24.4,8.8,-0.2,-9.4,26,19,15,27.79,27.61,9,2,9,0.00
2013-3-26,59.9,44.0,29.5,10.5,4.3,-2.7,31,20,14,27.61,27.52,10,2,10,0.00
2013-3-27,57.4,46.0,35.6,19.5,8.8,-0.7,38,23,14,27.61,27.55,9,2,9,0.00
2013-3-28,62.2,47.5,36.0,25.2,15.0,7.1,55,30,14,27.70,27.61,9,1,9,0.00
2013-3-29,62.4,51.1,40.5,22.4,12.1,3.4,45,22,14,27.82,27.70,11,1,11,0.00
2013-3-30,66.4,51.6,36.7,15.5,10.0,1.8,39,20,12,27.88,27.73,8,1,9,0.00
2013-3-31,72.0,54.6,37.9,16.3,11.7,2.6,40,19,11,27.73,27.55,9,1,10,0.00
2013-4-1,73.2,56.9,41.4,21.1,11.2,4.7,29,17,11,27.61,27.55,10,2,14,0.00
2013-4-2,65.1,55.4,46.8,21.4,13.6,7.1,36,20,13,27.70,27.61,13,1,14,0.00
2013-4-3,65.5,54.3,46.8,17.6,12.4,6.2,29,19,13,27.73,27.64,0,0,0,0.00
2013-4-4,57.0,49.6,40.3,30.9,20.1,6.7,45,32,17,27.64,27.37,9,1,9,0.08
2013-4-5,58.8,50.6,46.9,26.1,17.8,8.8,39,28,17,27.49,27.43,0,0,0,0.08
2013-4-6,56.1,49.3,44.8,24.6,12.5,2.9,43,24,15,27.49,27.43,0,0,0,0.00
2013-4-7,53.4,43.7,38.3,23.8,14.0,2.8,51,31,16,27.43,27.20,0,0,0,0.16
2013-4-8,51.3,41.2,34.3,16.1,8.4,-1.1,42,27,16,27.82,27.37,0,0,0,0.00
2013-4-9,57.2,44.2,30.6,9.8,6.1,-0.6,39,22,15,27.91,27.79,8,0,8,0.00
2013-4-10,47.8,47.0,45.5,5.2,4.5,3.2,17,17,17,27.79,27.76,0,0,0,0.00
2013-4-14,52.0,40.8,33.4,13.8,6.0,0.2,40,24,16,27.52,27.46,11,2,11,0.00
2013-4-15,50.0,39.5,31.8,8.0,0.5,-4.7,30,19,16,27.70,27.49,19,7,19,0.00
2013-4-16,49.8,39.1,29.3,5.4,-0.6,-8.9,20,18,16,27.91,27.70,17,4,17,0.00
2013-4-17,55.6,41.8,26.1,8.7,1.0,-8.5,21,18,15,27.96,27.88,12,1,12,0.00
2013-4-18,56.1,46.5,36.9,8.8,4.0,-1.7,19,17,15,27.91,27.76,15,3,15,0.00
2013-4-19,55.6,48.4,43.9,30.0,22.7,9.5,57,37,18,27.76,27.52,12,2,12,0.20
2013-4-20,61.0,49.7,39.9,22.6,12.8,3.2,42,25,14,27.70,27.55,11,0,11,0.00
2013-4-21,49.3,41.4,35.1,22.3,12.5,2.5,51,31,17,27.85,27.64,12,0,12,0.24
2013-4-22,54.9,42.6,31.5,13.0,4.6,-3.8,38,21,15,28.05,27.85,6,0,6,0.00
2013-4-23,59.4,47.3,36.9,10.2,4.2,-1.7,19,17,14,27.94,27.79,12,1,12,0.00
2013-4-24,63.5,50.6,34.0,12.6,7.3,-1.4,33,18,13,27.88,27.58,8,1,8,0.00
2013-4-25,71.1,57.1,42.4,15.9,9.0,1.8,20,15,12,27.67,27.55,15,2,15,0.00
2013-4-26,73.8,62.0,50.5,21.2,11.9,6.0,16,14,11,27.79,27.64,14,2,14,0.00
2013-4-27,62.6,57.5,51.3,12.6,9.6,6.6,16,15,14,27.73,27.58,17,1,17,0.00
2013-4-28,61.9,53.3,45.1,14.8,10.1,5.4,28,18,14,27.67,27.46,0,0,0,0.00
2013-4-29,57.4,49.1,40.3,13.7,6.8,0.0,28,18,14,27.55,27.34,24,3,24,0.00
2013-4-30,50.9,42.0,32.7,6.3,1.5,-3.9,30,18,16,27.91,27.55,15,2,15,0.00
2013-5-1,61.3,46.4,32.4,11.8,6.4,-2.1,36,20,14,28.17,27.91,10,0,10,0.00
2013-5-2,70.0,54.1,36.9,14.9,7.5,-1.5,22,15,12,28.17,27.85,9,1,9,0.00
2013-5-3,71.6,60.9,50.2,16.2,10.8,5.7,16,14,11,27.85,27.79,13,0,13,0.00
2013-5-4,72.5,61.4,48.7,20.5,11.5,5.7,19,14,11,27.88,27.70,15,1,15,0.00
2013-5-5,79.0,64.4,50.2,23.7,13.9,5.6,16,14,11,27.70,27.49,19,2,19,0.00
2013-5-6,85.3,67.1,48.2,24.7,15.0,4.1,16,13,11,27.52,27.37,13,2,13,0.00
2013-5-7,86.5,69.3,48.6,25.7,17.3,7.8,27,14,11,27.52,27.43,11,2,11,0.00
2013-5-8,85.3,71.3,54.1,24.9,17.2,7.5,15,13,11,27.64,27.52,9,2,11,0.00
2013-5-9,86.7,72.6,55.6,26.0,20.3,11.1,30,14,11,27.70,27.61,13,1,13,0.00
2013-5-10,87.1,72.2,53.4,26.3,19.6,8.7,27,14,11,27.79,27.70,13,1,13,0.00
2013-5-11,86.2,72.7,59.7,25.6,18.7,11.0,17,13,11,27.76,27.64,12,1,12,0.00
2013-5-12,81.0,70.1,60.6,23.7,18.6,11.7,19,14,12,27.67,27.58,10,0,10,0.00
2013-5-13,65.8,57.4,48.4,33.7,19.6,4.1,49,24,15,27.70,27.55,23,4,23,0.35
2013-5-14,63.5,52.0,42.1,12.6,7.9,2.5,26,17,13,27.76,27.67,18,3,18,0.00
2013-5-15,67.1,54.6,39.4,20.3,12.5,3.1,45,21,12,27.70,27.55,7,1,7,0.00
2013-5-16,57.2,54.2,52.9,14.0,9.9,7.5,21,17,14,27.55,27.55,0,0,0,0.00
2013-5-22,50.5,45.0,38.5,20.1,12.9,4.4,43,28,16,17.72,17.72,11,2,11,0.04
2013-5-23,64.0,48.9,34.9,25.9,13.8,3.5,54,29,13,17.72,17.72,8,0,8,0.00
2013-5-24,55.6,46.8,37.6,22.5,13.9,2.6,45,27,15,17.72,17.72,15,2,15,0.00
2013-5-25,64.2,52.7,43.0,21.5,13.8,6.9,40,23,13,17.72,17.72,0,0,0,0.00
2013-5-26,72.0,57.4,41.4,22.8,15.7,9.2,46,22,11,17.72,17.72,9,0,9,0.00
2013-5-27,68.7,57.3,50.7,32.1,18.0,10.0,48,23,12,17.72,17.72,8,0,8,0.04
2013-5-28,66.2,55.5,49.8,35.5,24.1,11.3,56,33,15,17.72,17.72,6,0,6,0.00
2013-5-29,65.8,54.0,48.0,28.3,18.8,7.1,44,27,13,17.72,17.72,11,0,11,0.08
2013-5-30,63.1,53.3,45.3,27.9,15.1,6.0,43,24,13,17.72,17.72,15,0,15,0.00
2013-5-31,69.3,56.7,45.5,15.6,10.2,4.1,29,16,12,17.72,17.72,11,0,11,0.00
2013-6-1,72.3,58.6,43.0,22.4,14.6,5.6,40,19,11,17.72,17.72,10,0,10,0.00
2013-6-2,66.0,54.1,47.3,35.4,20.8,7.1,55,29,15,17.72,17.72,8,0,8,0.55
2013-6-3,71.1,57.5,47.7,31.6,20.8,11.0,49,27,12,17.72,17.72,10,0,10,0.08
2013-6-4,77.5,64.4,51.8,26.4,19.7,10.3,36,19,11,17.72,17.72,12,1,12,0.00
2013-6-5,82.0,67.7,50.5,25.4,20.2,9.8,37,18,11,17.72,17.72,13,2,13,0.00
2013-6-6,83.5,72.7,59.7,24.6,19.8,11.7,24,14,11,17.72,17.72,12,2,12,0.00
2013-6-7,81.5,70.6,61.3,23.9,17.6,11.7,16,13,11,17.72,17.72,22,4,22,0.00
2013-6-8,77.9,65.6,51.4,23.1,14.6,6.9,19,14,11,17.72,17.72,15,3,15,0.00
2013-6-9,75.6,65.4,53.8,21.3,14.0,8.2,18,13,11,17.72,17.72,16,2,16,0.00
2013-6-10,76.3,64.9,50.4,21.7,13.8,5.9,19,14,11,17.72,17.72,10,1,10,0.00
2013-6-11,68.7,60.4,52.9,14.6,10.6,7.1,17,14,12,17.72,17.72,11,1,11,0.00
2013-6-12,53.2,51.2,50.0,8.2,6.6,5.4,16,16,16,17.72,17.72,14,7,14,0.00
2013-6-13,58.8,54.1,50.5,17.7,9.7,6.8,26,17,14,0.00,0.00,4,0,4,0.00
2013-6-14,68.9,56.9,46.6,22.7,13.7,7.2,37,19,12,0.00,0.00,17,2,17,0.00
2013-6-15,80.1,64.6,46.0,23.7,17.6,7.1,38,17,11,0.00,0.00,11,1,11,0.00
2013-6-16,85.3,70.0,52.0,24.9,18.7,9.5,26,15,11,0.00,0.00,13,2,13,0.00
2013-6-17,83.3,71.3,61.3,24.6,18.6,11.1,16,13,11,0.00,0.00,13,2,13,0.00
2013-6-18,69.8,61.7,56.8,38.6,23.2,12.1,49,25,12,0.00,0.00,12,0,12,0.08
2013-6-19,57.0,53.2,49.5,33.8,29.1,20.6,53,40,25,0.00,0.00,9,0,9,0.12
2013-6-20,50.0,49.1,48.2,32.6,29.2,25.0,51,46,39,0.00,0.00,18,2,18,0.83
2013-6-21,64.8,54.8,48.0,33.7,23.1,11.1,55,32,13,0.00,0.00,6,0,6,0.04
2013-6-22,70.5,59.5,48.4,35.8,20.1,11.1,52,24,12,0.00,0.00,9,0,9,0.00
2013-6-23,76.6,63.5,46.8,34.8,22.7,12.5,54,25,12,0.00,0.00,10,1,10,0.00
2013-6-24,65.3,60.3,54.7,38.9,30.6,15.8,51,34,15,0.00,0.00,6,0,6,0.20
2013-6-25,69.4,60.0,51.4,38.1,26.7,15.8,52,30,15,0.00,0.00,8,0,8,0.12
2013-6-26,73.2,64.1,57.2,34.5,24.4,15.8,37,23,14,0.00,0.00,8,0,8,0.00
2013-6-27,81.3,69.4,57.2,39.1,26.3,18.5,50,22,12,0.00,0.00,10,1,10,0.00
2013-6-28,89.8,74.4,58.1,35.9,26.1,19.6,43,19,10,0.00,0.00,13,1,13,0.00
2013-6-29,77.2,69.5,63.0,38.5,30.6,18.9,35,25,13,0.00,0.00,13,0,13,0.12
2013-6-30,92.8,76.3,59.7,42.9,29.0,19.4,51,22,9,0.00,0.00,10,1,11,0.00
2013-7-1,98.1,82.0,64.0,35.5,27.0,18.6,34,15,8,0.00,0.00,14,3,14,0.00
2013-7-2,94.8,82.4,67.5,36.6,27.4,21.3,31,15,9,0.00,0.00,11,1,11,0.00
2013-7-3,90.1,78.5,68.4,26.7,22.3,14.9,15,12,10,0.00,0.00,15,1,15,0.00
2013-7-4,82.9,73.0,64.8,24.6,18.0,12.1,14,12,11,0.00,0.00,15,2,15,0.00
2013-7-5,80.2,69.2,58.8,23.7,16.2,9.8,15,13,11,0.00,0.00,11,1,11,0.00
2013-7-6,84.4,71.9,58.1,24.6,18.9,9.8,25,14,11,0.00,0.00,8,0,8,0.00
2013-7-7,87.8,73.2,55.4,26.7,21.1,11.1,30,15,11,0.00,0.00,10,0,10,0.00
2013-7-8,84.0,70.9,57.4,25.3,20.0,11.2,28,15,11,0.00,0.00,8,0,8,0.00
2013-7-9,88.9,72.7,53.8,35.1,25.1,13.1,44,20,10,0.00,0.00,8,1,9,0.00
2013-7-10,90.7,76.1,57.7,26.7,22.7,12.5,29,14,10,0.00,0.00,12,3,12,0.00
2013-7-11,72.0,68.4,64.0,16.2,14.0,12.1,13,12,11,0.00,0.00,10,3,10,0.00
2013-7-14,71.2,68.5,65.8,16.1,14.0,12.1,13,12,12,0.00,0.00,8,0,8,0.00
2013-7-15,84.6,71.2,57.4,24.6,17.7,9.5,22,13,11,0.00,0.00,14,1,14,0.00
2013-7-16,86.0,74.1,57.4,25.4,19.0,8.6,17,12,11,0.00,0.00,17,1,17,0.00
2013-7-17,90.0,78.8,66.7,30.7,23.8,18.8,25,13,10,0.00,0.00,12,0,12,0.04
2013-7-18,90.7,76.2,59.7,26.7,23.4,14.4,27,15,10,0.00,0.00,10,1,10,0.00
2013-7-19,93.4,78.1,59.9,27.1,22.0,12.1,25,13,9,0.00,0.00,10,1,10,0.00
2013-7-20,93.4,78.6,62.4,27.1,21.5,11.9,21,12,9,0.00,0.00,13,1,13,0.00
2013-7-21,91.2,79.0,66.2,27.1,21.6,12.1,14,12,10,0.00,0.00,13,2,13,0.00
2013-7-22,91.6,78.6,68.0,27.1,21.2,13.5,14,12,9,0.00,0.00,15,3,15,0.00
2013-7-23,96.1,80.6,64.4,28.2,22.0,12.1,15,11,9,0.00,0.00,13,1,13,0.00
2013-7-24,95.4,79.9,61.0,27.7,21.9,11.1,21,12,9,0.00,0.00,11,2,11,0.00
2013-7-25,95.4,79.9,62.6,27.5,21.5,11.1,18,12,9,0.00,0.00,9,1,9,0.00
2013-7-26,94.5,80.1,63.5,27.1,21.3,11.8,14,11,9,0.00,0.00,11,1,11,0.00
2013-7-27,87.4,74.8,63.1,26.5,19.0,11.5,14,12,11,0.00,0.00,15,4,15,0.00
2013-7-28,84.9,72.7,61.5,24.6,17.7,11.1,14,12,11,0.00,0.00,13,2,13,0.00
2013-7-29,85.3,71.5,57.4,24.7,18.2,9.8,22,13,11,0.00,0.00,7,0,7,0.00
2013-7-30,88.7,74.1,57.6,26.7,20.3,11.1,25,14,10,0.00,0.00,8,0,8,0.00
2013-7-31,87.1,73.6,58.1,26.3,20.0,12.1,22,13,11,0.00,0.00,14,1,14,0.00
2013-8-1,76.1,66.5,57.9,38.3,19.5,11.9,47,18,12,0.00,0.00,8,0,8,0.20
2013-8-2,61.7,58.1,55.4,43.5,38.3,29.0,57,48,31,0.00,0.00,13,2,13,0.79
2013-8-3,76.3,64.8,56.7,46.8,31.0,18.1,60,34,13,0.00,0.00,6,0,7,0.04
2013-8-4,85.5,70.4,56.5,41.2,27.2,17.2,54,24,11,0.00,0.00,8,0,8,0.00
2013-8-5,88.5,72.4,57.2,33.8,24.5,13.5,39,19,10,0.00,0.00,10,0,10,0.00
2013-8-6,90.9,74.5,58.3,33.3,24.5,12.1,38,17,10,0.00,0.00,7,1,7,0.00
2013-8-7,91.2,76.5,60.1,31.8,24.5,16.9,34,16,10,0.00,0.00,8,0,8,0.00
2013-8-8,92.1,76.1,59.9,27.1,21.3,11.9,27,13,9,0.00,0.00,10,0,10,0.00
2013-8-9,91.4,79.0,65.5,30.4,22.8,16.6,25,13,9,27.52,0.00,15,1,15,0.63
2013-8-10,91.0,76.6,63.5,36.6,25.8,17.9,34,16,10,27.61,27.49,16,1,16,0.31
2013-8-11,90.3,77.2,65.1,26.7,21.9,16.4,15,13,10,27.64,27.52,8,0,8,0.31
2013-8-12,91.4,77.1,62.6,31.7,23.9,18.1,30,15,10,27.64,27.55,8,0,8,0.31
2013-8-13,89.8,76.3,64.4,29.1,22.1,12.1,26,14,10,27.73,27.61,9,0,9,0.31
2013-8-14,67.6,64.7,62.1,26.4,23.1,17.5,25,21,15,27.64,27.61,7,1,7,0.00
2013-8-29,83.7,75.7,69.3,24.6,20.8,14.5,15,13,11,27.67,27.58,8,0,8,0.00
2013-8-30,81.0,70.6,60.3,32.0,20.7,12.1,34,16,11,27.76,27.64,15,2,15,0.08
2013-8-31,86.2,69.7,51.6,27.6,20.1,8.9,37,16,11,27.73,27.55,11,1,11,0.00
2013-9-1,92.7,73.8,56.3,27.1,20.7,11.1,22,14,9,27.58,27.43,17,3,17,0.00
2013-9-2,73.0,67.4,62.4,36.8,25.2,12.8,38,21,12,27.58,27.46,13,0,13,0.00
2013-9-3,85.3,71.5,61.2,35.5,27.2,18.6,37,21,11,27.64,27.55,11,0,11,0.00
2013-9-4,90.1,75.5,63.9,31.9,25.7,19.6,30,17,10,27.64,27.58,25,1,25,0.04
2013-9-7,57.0,56.3,55.8,39.2,37.5,36.9,52,49,47,27.70,27.67,0,0,0,0.00
2013-9-8,74.3,61.5,52.9,43.4,29.8,16.2,60,36,13,27.73,27.61,9,0,9,0.00
2013-9-9,83.3,70.4,58.5,28.4,20.1,12.1,31,15,11,27.67,27.58,9,0,9,0.00
2013-9-10,87.3,71.4,55.9,33.1,24.9,13.0,41,20,11,27.70,27.61,9,1,9,0.00
2013-9-11,91.8,79.0,63.5,27.1,23.7,18.6,23,13,9,27.70,27.64,14,2,14,0.00
2013-9-12,90.7,78.5,68.9,26.7,21.8,14.2,14,12,10,27.67,27.52,8,0,8,0.00
2013-9-13,90.9,74.7,59.5,28.9,23.3,13.0,30,16,10,27.52,27.40,9,1,9,0.00
2013-9-14,90.5,75.5,62.4,26.7,23.8,14.4,25,15,10,27.55,27.46,13,1,13,0.00
2013-9-15,91.8,77.7,62.2,37.8,22.3,13.7,40,13,9,27.49,27.32,24,0,24,0.08
2013-9-16,72.1,62.3,57.6,40.3,26.5,11.0,46,28,12,27.55,27.40,11,0,11,0.04
2013-9-17,71.4,59.5,52.3,33.6,23.6,12.1,47,27,12,27.49,27.32,8,0,8,0.12
2013-9-18,67.6,55.7,48.7,34.1,19.0,7.1,50,27,12,27.70,27.40,10,1,15,0.04
2013-9-19,73.2,59.5,47.3,25.7,16.6,7.1,42,21,11,27.76,27.58,10,1,10,0.00
2013-9-20,82.0,63.2,47.8,24.5,17.4,10.8,37,18,11,27.58,27.20,14,1,14,0.00
2013-9-21,67.3,59.5,53.6,21.4,12.4,7.7,26,16,12,27.37,27.20,8,0,8,0.00
2013-9-22,62.8,54.4,49.5,30.9,18.8,8.4,46,26,13,27.37,27.32,10,0,10,0.00
2013-9-23,61.3,54.7,48.4,28.0,16.5,8.1,41,24,14,27.55,27.37,17,1,17,0.00
2013-9-24,62.2,53.4,48.0,32.6,17.4,6.5,48,26,14,27.55,27.40,0,0,0,0.04
2013-9-25,55.8,49.0,45.1,27.8,22.6,12.5,50,36,20,27.52,27.40,0,0,0,0.12
2013-9-26,63.5,52.2,43.7,28.0,13.0,4.1,49,23,13,27.64,27.52,15,0,15,0.00
2013-9-27,54.3,49.1,46.0,28.6,14.7,4.1,48,26,15,27.64,27.55,9,0,9,0.00
2013-9-28,59.4,54.0,48.2,33.4,24.5,13.7,52,33,17,27.55,27.11,0,0,0,0.20
2013-9-29,56.7,50.5,46.2,31.1,18.3,10.4,43,29,17,27.32,27.11,0,0,0,0.35
2013-9-30,58.6,50.7,43.9,28.2,12.1,5.4,42,22,14,27.52,27.05,0,0,0,0.08
2013-10-1,56.8,47.1,41.0,20.9,13.6,4.1,39,27,15,27.73,27.52,0,0,0,0.00
2013-10-2,55.6,46.7,40.5,18.6,10.9,4.9,38,24,15,27.76,27.64,0,0,0,0.00
2013-10-3,60.8,47.5,35.6,20.2,10.8,2.5,46,25,14,27.99,27.64,0,0,0,0.00
2013-10-4,62.4,46.5,33.6,15.8,9.6,1.4,45,24,14,28.08,27.99,0,0,0,0.00
2013-10-5,68.0,49.9,37.2,15.4,10.2,1.0,39,21,12,28.02,27.88,9,1,9,0.00
2013-10-6,68.9,51.6,36.5,21.1,13.7,6.2,47,25,12,27.88,27.58,11,2,11,0.00
2013-10-7,63.9,54.2,44.1,20.8,9.1,3.4,30,16,13,27.58,27.46,17,3,17,0.08
2013-10-8,51.1,43.9,39.4,25.7,19.0,10.3,56,37,21,27.64,27.49,0,0,0,0.04
2013-10-9,59.9,45.5,36.5,29.9,18.9,7.1,68,40,14,27.67,27.52,0,0,0,0.00
2013-10-10,43.7,43.1,42.6,23.5,22.2,20.6,46,43,40,27.52,27.52,0,0,0,0.00
2013-10-14,60.6,50.2,38.1,18.7,7.4,0.9,45,18,14,27.99,27.96,0,0,0,0.00
2013-10-15,60.4,43.9,30.4,18.6,9.3,1.2,54,27,14,28.02,27.79,0,0,0,0.00
2013-10-16,62.2,48.0,39.7,17.8,10.4,3.7,39,23,14,27.79,27.73,0,0,0,0.00
2013-10-17,60.3,45.0,34.3,32.6,16.4,6.5,57,35,14,27.88,27.79,0,0,0,0.00
2013-10-18,63.1,42.8,32.2,31.2,17.6,9.2,58,40,13,27.91,27.82,0,0,0,0.00
2013-10-21,67.5,56.4,44.8,32.1,15.6,8.4,56,22,12,27.85,27.76,0,0,0,0.00
2013-10-22,67.8,48.5,37.8,37.1,22.5,8.7,63,41,12,27.85,27.73,0,0,0,0.00
2013-10-23,62.6,47.6,39.9,35.2,23.1,10.0,65,43,14,27.79,27.73,0,0,0,0.00
2013-10-24,65.8,49.3,40.3,36.4,22.5,8.6,61,40,13,27.76,27.70,0,0,0,0.00
2013-10-25,60.3,44.8,37.2,38.3,24.8,11.3,64,49,17,27.88,27.76,0,0,0,0.00
2013-10-26,58.8,44.3,36.3,36.0,24.4,9.7,63,49,17,27.91,27.67,0,0,0,0.00
2013-10-27,50.5,41.3,34.3,37.7,20.7,0.3,71,48,17,27.67,27.43,0,0,0,0.08
2013-10-28,45.9,37.8,33.1,21.5,3.3,-2.9,61,25,17,27.61,27.49,0,0,0,0.00
2013-10-29,50.7,39.7,30.9,6.0,0.2,-5.4,20,19,16,27.61,27.55,0,0,0,0.00
2013-10-30,50.4,38.3,27.5,8.1,1.6,-4.5,36,22,16,27.67,27.61,0,0,0,0.00
2013-10-31,57.9,46.8,37.2,19.4,7.7,0.9,43,21,14,27.76,27.64,0,0,0,0.00
2013-11-1,59.2,44.5,37.0,24.0,16.0,4.6,52,34,14,27.85,27.61,0,0,0,0.00
2013-11-2,51.1,43.6,36.9,31.9,17.9,2.2,57,38,16,27.61,27.23,0,0,0,0.31
2013-11-3,41.2,36.1,33.3,20.8,13.0,1.5,54,39,21,27.58,27.40,0,0,0,0.00
2013-11-4,39.4,34.1,29.5,18.3,10.1,1.2,54,37,21,27.76,27.58,0,0,0,0.00
2013-11-5,35.6,33.2,30.6,23.5,15.4,3.5,61,49,30,27.79,27.70,0,0,0,0.08
2013-11-6,40.6,36.4,34.5,23.6,19.4,11.6,63,51,31,27.94,27.79,0,0,0,0.00
2013-11-7,47.1,39.4,34.7,36.0,23.4,16.5,66,53,37,27.85,27.37,17,2,17,0.43
2013-11-8,49.8,42.3,36.9,20.6,14.5,2.5,46,34,16,27.76,27.52,17,4,17,0.00
2013-11-9,45.7,39.2,32.2,30.2,18.6,12.8,60,45,28,27.79,27.73,9,2,9,0.00
2013-11-10,44.6,41.1,38.8,24.9,21.3,17.7,54,45,38,27.85,27.73,0,0,0,0.00
2013-11-11,51.3,43.8,39.0,19.1,15.3,8.9,43,32,19,27.94,27.85,0,0,0,0.00
2013-11-12,47.7,42.8,37.0,26.8,18.5,14.0,55,38,27,27.94,27.82,0,0,0,0.00
2013-11-13,42.3,41.9,41.5,27.3,26.6,26.2,56,54,53,27.94,27.94,0,0,0,0.00